Walston, Pennsylvania
Current Conditions -  °F | °C
As of 7:14 AM on Friday 19 Dec 2014 (Local Time) from KDUJ Reporting Station
Overcast Overcast  
Wind Chill: 16°   Ceiling: 1500
Heat Index: 27°   Visibility: 10mi
Dew Point: 24°   Wind: 14mph
Humidity: 89%   Direction: 290°WNW
Pressure: 30.07"   Gusts: 20mph
Location:  40.96°N, 78.99°W
Report Text: KDUJ 191214Z AUTO 29012G17KT 10SM BKN015 OVC021 M03/M04 A3007 RMK AO2 T10281044
Loading
Personal Weather Stations






























Interactive Weather Map New forecast layout! Learn more

10-Day Weather Forecast

Advertisements
Track Severe Weather on mobile